Hawthorne Army Ammunition Pl, Nevada
Current Conditions -  °F | °C
As of 3:56 AM on Friday 24 Oct 2014 (Local Time) from KNFL Reporting Station
Clear Clear  
Wind Chill: 38°   Ceiling: Unl
Heat Index: 38°   Visibility: 10mi
Dew Point: 27°   Wind: 3mph
Humidity: 65%   Direction: 160°SSE
Pressure: 30.06"   Gusts: NA
Location:  38.6331°N, 118.656°W
Report Text: KNFL 241056Z AUTO 16003KT 10SM CLR 03/M03 A3006 RMK AO2 SLP148 T00331028
Loading
Personal Weather Stations






























Interactive Weather Map
Tropical Storm Tracking
New forecast layout! Learn more

10-Day Weather Forecast

Advertisements
Track Severe Weather on mobile